Antioch, Texas
Current Conditions -  °F | °C
As of 12:55 PM on Thursday 30 Oct 2014 (Local Time) from KOCH Reporting Station
Clear Clear  
Wind Chill: 70°   Ceiling: Unl
Heat Index: 70°   Visibility: 10mi
Dew Point: 45°   Wind: 6mph
Humidity: 40%   Direction: 120°ESE
Pressure: 30.16"   Gusts: NA
Location:  31.8636°N, 94.3909°W
Report Text: KOCH 301755Z AUTO 12005KT 10SM CLR 21/07 A3016 RMK AO1 10210 20050 57010
Loading
Personal Weather Stations






























Interactive Weather Map
Tropical Storm Tracking
New forecast layout! Learn more

10-Day Weather Forecast

Advertisements
Track Severe Weather on mobile